Impacts METAR Board
IDs:

KJWY - Midlothian/Mid-Way R, TX, US

Updated at: 0600 UTC 19 Aug 2019
Potential Impact None Slight Moderate High
Time 18/18Z 18/19Z 18/20Z 18/21Z 18/22Z 18/23Z 19/00Z 19/01Z 19/02Z 19/03Z 19/04Z 19/05Z 19/06Z
Temp94 97 98 99 100 99 97 93 90 88 87 84 83
Dewpt71 70 69 68 67 67 67 66 68 68 68 69 71
Altim29.92 29.90 29.89 29.88 29.87 29.85 29.84 29.85 29.86 29.89 29.91 29.92 29.93
VIS10 10 10 10 10 10 10 10 10 10 10 10 10
CIG-- -- -- -- -- -- -- -- -- -- -- -- --
CoverCLRCLRCLRCLRCLRCLRCLRCLRCLRCLRCLRCLRCLR
FltCatVFRVFRVFRVFRVFRVFRVFRVFRVFRVFRVFRVFRVFR
WX--------------------------
WDir170190170140150150150150130130130130150
WSpd11 7 12 9 7 7 9 6 3 3 3 4 5
WGst17 18 15 -- -- -- -- -- -- -- -- -- --
Raw hourly METARs
KJWY 181755Z AUTO 17011G17KT 10SM CLR 34/22 A2992 RMK AO2 T03430217 10344 20253
KJWY 181855Z AUTO 19007G18KT 10SM CLR 36/21 A2990 RMK AO2 T03620211
KJWY 181955Z AUTO 17012G15KT 10SM CLR 37/20 A2989 RMK AO2 T03670203
KJWY 182055Z AUTO 14009KT 10SM CLR 37/20 A2988 RMK AO2 T03700202
KJWY 182155Z AUTO 15007KT 10SM CLR 38/19 A2987 RMK AO2 T03760192
KJWY 182255Z AUTO 15007KT 10SM CLR 37/19 A2985 RMK AO2 T03700194
KJWY 182355Z AUTO 15009KT 10SM CLR 36/20 A2984 RMK AO2 T03600196 10379 20344
KJWY 190055Z AUTO 15006KT 10SM CLR 34/19 A2985 RMK AO2 T03410188
KJWY 190200Z AUTO 13003KT 10SM CLR 32/20 A2986 RMK AO2 T03200198
KJWY 190255Z AUTO 13003KT 10SM CLR 31/20 A2989 RMK AO2 T03110201
KJWY 190355Z AUTO 13003KT 10SM CLR 30/20 A2991 RMK AO2 T03030201
KJWY 190500Z AUTO 13004KT 10SM CLR 29/21 A2992 RMK AO2 T02910205
KJWY 190555Z AUTO 15005KT 10SM CLR 29/21 A2993 RMK AO2 T02860214 10360 20286 403790253



Page loaded:  06:02 UTC  |   11:02 PM Pacific  |   12:02 AM Mountain  |   01:02 AM Central  |   02:02 AM Eastern

 

ADVISORIES

FORECASTS

FORECASTS

OBSERVATIONS

USER TOOLS

ABOUT US